sensor_id;sensor_type;location;lat;lon;timestamp;P1;durP1;ratioP1;P2;durP2;ratioP2
54937;SDS011;52756;52.826;6.214;2023-11-21T00:01:19;26.67;;;14.60;;
54937;SDS011;52756;52.826;6.214;2023-11-21T00:03:45;25.30;;;14.18;;
54937;SDS011;52756;52.826;6.214;2023-11-21T00:06:11;28.35;;;13.25;;
54937;SDS011;52756;52.826;6.214;2023-11-21T00:08:37;22.88;;;12.77;;
54937;SDS011;52756;52.826;6.214;2023-11-21T00:11:02;24.92;;;13.73;;
54937;SDS011;52756;52.826;6.214;2023-11-21T00:13:30;26.45;;;13.63;;
54937;SDS011;52756;52.826;6.214;2023-11-21T00:15:57;26.20;;;14.45;;
54937;SDS011;52756;52.826;6.214;2023-11-21T00:18:23;26.13;;;12.90;;
54937;SDS011;52756;52.826;6.214;2023-11-21T00:20:48;26.20;;;14.80;;
54937;SDS011;52756;52.826;6.214;2023-11-21T00:23:14;22.85;;;13.48;;
54937;SDS011;52756;52.826;6.214;2023-11-21T00:25:39;27.52;;;14.55;;
54937;SDS011;52756;52.826;6.214;2023-11-21T00:28:05;30.15;;;15.50;;
54937;SDS011;52756;52.826;6.214;2023-11-21T00:30:31;28.63;;;14.60;;
54937;SDS011;52756;52.826;6.214;2023-11-21T00:32:57;27.02;;;13.07;;
54937;SDS011;52756;52.826;6.214;2023-11-21T00:35:22;25.73;;;13.75;;
54937;SDS011;52756;52.826;6.214;2023-11-21T00:37:48;30.35;;;14.18;;
54937;SDS011;52756;52.826;6.214;2023-11-21T00:40:14;30.25;;;15.55;;
54937;SDS011;52756;52.826;6.214;2023-11-21T00:42:41;30.27;;;14.68;;
54937;SDS011;52756;52.826;6.214;2023-11-21T00:45:07;35.22;;;14.60;;
54937;SDS011;52756;52.826;6.214;2023-11-21T00:47:33;29.48;;;15.18;;
54937;SDS011;52756;52.826;6.214;2023-11-21T00:49:58;30.20;;;15.85;;
54937;SDS011;52756;52.826;6.214;2023-11-21T00:52:24;25.33;;;12.65;;
54937;SDS011;52756;52.826;6.214;2023-11-21T00:54:50;22.65;;;13.68;;
54937;SDS011;52756;52.826;6.214;2023-11-21T00:57:15;35.13;;;15.75;;
54937;SDS011;52756;52.826;6.214;2023-11-21T00:59:41;27.30;;;14.43;;
54937;SDS011;52756;52.826;6.214;2023-11-21T01:02:07;29.88;;;13.68;;
54937;SDS011;52756;52.826;6.214;2023-11-21T01:04:35;29.90;;;14.10;;
54937;SDS011;52756;52.826;6.214;2023-11-21T01:07:01;29.02;;;14.30;;
54937;SDS011;52756;52.826;6.214;2023-11-21T01:09:26;31.52;;;14.20;;
54937;SDS011;52756;52.826;6.214;2023-11-21T01:11:53;32.08;;;14.80;;
54937;SDS011;52756;52.826;6.214;2023-11-21T01:14:18;28.15;;;13.23;;
54937;SDS011;52756;52.826;6.214;2023-11-21T01:16:44;33.00;;;14.88;;
54937;SDS011;52756;52.826;6.214;2023-11-21T01:19:10;29.92;;;14.98;;
54937;SDS011;52756;52.826;6.214;2023-11-21T01:21:35;24.08;;;12.85;;
54937;SDS011;52756;52.826;6.214;2023-11-21T01:24:04;26.33;;;12.65;;
54937;SDS011;52756;52.826;6.214;2023-11-21T01:26:32;27.02;;;13.65;;
54937;SDS011;52756;52.826;6.214;2023-11-21T01:28:58;25.27;;;14.30;;
54937;SDS011;52756;52.826;6.214;2023-11-21T01:31:24;27.98;;;13.88;;
54937;SDS011;52756;52.826;6.214;2023-11-21T01:33:54;30.92;;;15.32;;
54937;SDS011;52756;52.826;6.214;2023-11-21T01:36:20;33.85;;;14.85;;
54937;SDS011;52756;52.826;6.214;2023-11-21T01:38:46;27.83;;;13.80;;
54937;SDS011;52756;52.826;6.214;2023-11-21T01:41:13;31.63;;;13.85;;
54937;SDS011;52756;52.826;6.214;2023-11-21T01:43:40;28.13;;;13.98;;
54937;SDS011;52756;52.826;6.214;2023-11-21T01:46:06;28.17;;;14.18;;
54937;SDS011;52756;52.826;6.214;2023-11-21T01:48:33;27.80;;;13.93;;
54937;SDS011;52756;52.826;6.214;2023-11-21T01:50:59;27.63;;;14.82;;
54937;SDS011;52756;52.826;6.214;2023-11-21T01:53:26;29.58;;;14.20;;
54937;SDS011;52756;52.826;6.214;2023-11-21T01:55:52;31.20;;;14.10;;
54937;SDS011;52756;52.826;6.214;2023-11-21T01:58:19;25.23;;;13.18;;
54937;SDS011;52756;52.826;6.214;2023-11-21T02:00:46;28.90;;;13.52;;
54937;SDS011;52756;52.826;6.214;2023-11-21T02:03:15;26.90;;;13.73;;
54937;SDS011;52756;52.826;6.214;2023-11-21T02:05:44;24.00;;;13.48;;
54937;SDS011;52756;52.826;6.214;2023-11-21T02:08:09;32.42;;;14.07;;
54937;SDS011;52756;52.826;6.214;2023-11-21T02:10:35;26.90;;;13.57;;
54937;SDS011;52756;52.826;6.214;2023-11-21T02:13:02;28.30;;;14.05;;
54937;SDS011;52756;52.826;6.214;2023-11-21T02:15:28;26.05;;;13.52;;
54937;SDS011;52756;52.826;6.214;2023-11-21T02:17:54;26.00;;;13.23;;
54937;SDS011;52756;52.826;6.214;2023-11-21T02:20:21;26.63;;;13.50;;
54937;SDS011;52756;52.826;6.214;2023-11-21T02:22:51;28.65;;;15.38;;
54937;SDS011;52756;52.826;6.214;2023-11-21T02:25:23;26.60;;;14.70;;
54937;SDS011;52756;52.826;6.214;2023-11-21T02:27:53;24.40;;;13.60;;
54937;SDS011;52756;52.826;6.214;2023-11-21T02:30:20;26.80;;;14.02;;
54937;SDS011;52756;52.826;6.214;2023-11-21T02:32:47;25.67;;;14.32;;
54937;SDS011;52756;52.826;6.214;2023-11-21T02:35:13;25.98;;;12.90;;
54937;SDS011;52756;52.826;6.214;2023-11-21T02:37:40;29.30;;;14.73;;
54937;SDS011;52756;52.826;6.214;2023-11-21T02:40:08;29.90;;;13.70;;
54937;SDS011;52756;52.826;6.214;2023-11-21T02:42:35;22.58;;;13.05;;
54937;SDS011;52756;52.826;6.214;2023-11-21T02:45:00;25.48;;;12.63;;
54937;SDS011;52756;52.826;6.214;2023-11-21T02:47:26;21.42;;;12.82;;
54937;SDS011;52756;52.826;6.214;2023-11-21T02:49:51;21.90;;;12.38;;
54937;SDS011;52756;52.826;6.214;2023-11-21T02:52:17;24.77;;;12.70;;
54937;SDS011;52756;52.826;6.214;2023-11-21T02:54:44;23.58;;;12.20;;
54937;SDS011;52756;52.826;6.214;2023-11-21T02:57:10;24.48;;;13.30;;
54937;SDS011;52756;52.826;6.214;2023-11-21T02:59:35;25.90;;;13.00;;
54937;SDS011;52756;52.826;6.214;2023-11-21T03:02:01;22.52;;;12.55;;
54937;SDS011;52756;52.826;6.214;2023-11-21T03:04:26;22.63;;;12.35;;
54937;SDS011;52756;52.826;6.214;2023-11-21T03:06:52;24.35;;;12.93;;
54937;SDS011;52756;52.826;6.214;2023-11-21T03:09:18;21.10;;;13.13;;
54937;SDS011;52756;52.826;6.214;2023-11-21T03:11:43;22.60;;;12.18;;
54937;SDS011;52756;52.826;6.214;2023-11-21T03:14:09;26.48;;;13.15;;
54937;SDS011;52756;52.826;6.214;2023-11-21T03:16:35;25.92;;;13.25;;
54937;SDS011;52756;52.826;6.214;2023-11-21T03:19:03;23.65;;;13.45;;
54937;SDS011;52756;52.826;6.214;2023-11-21T03:21:30;22.95;;;13.73;;
54937;SDS011;52756;52.826;6.214;2023-11-21T03:23:55;21.88;;;12.00;;
54937;SDS011;52756;52.826;6.214;2023-11-21T03:26:21;23.95;;;13.07;;
54937;SDS011;52756;52.826;6.214;2023-11-21T03:28:47;27.77;;;14.43;;
54937;SDS011;52756;52.826;6.214;2023-11-21T03:31:12;27.02;;;13.70;;
54937;SDS011;52756;52.826;6.214;2023-11-21T03:33:38;28.05;;;14.93;;
54937;SDS011;52756;52.826;6.214;2023-11-21T03:36:03;26.02;;;13.65;;
54937;SDS011;52756;52.826;6.214;2023-11-21T03:38:29;28.70;;;15.00;;
54937;SDS011;52756;52.826;6.214;2023-11-21T03:40:55;23.48;;;13.23;;
54937;SDS011;52756;52.826;6.214;2023-11-21T03:43:20;23.75;;;12.80;;
54937;SDS011;52756;52.826;6.214;2023-11-21T03:45:46;22.70;;;13.25;;
54937;SDS011;52756;52.826;6.214;2023-11-21T03:48:12;30.40;;;14.38;;
54937;SDS011;52756;52.826;6.214;2023-11-21T03:50:38;31.50;;;14.82;;
54937;SDS011;52756;52.826;6.214;2023-11-21T03:53:04;24.77;;;14.30;;
54937;SDS011;52756;52.826;6.214;2023-11-21T03:55:29;23.15;;;13.50;;
54937;SDS011;52756;52.826;6.214;2023-11-21T03:57:57;34.35;;;15.27;;
54937;SDS011;52756;52.826;6.214;2023-11-21T04:00:23;34.85;;;15.63;;
54937;SDS011;52756;52.826;6.214;2023-11-21T04:02:49;28.42;;;14.55;;
54937;SDS011;52756;52.826;6.214;2023-11-21T04:05:16;30.40;;;13.73;;
54937;SDS011;52756;52.826;6.214;2023-11-21T04:07:42;32.50;;;14.93;;
54937;SDS011;52756;52.826;6.214;2023-11-21T04:10:08;27.30;;;14.55;;
54937;SDS011;52756;52.826;6.214;2023-11-21T04:12:37;30.30;;;13.95;;
54937;SDS011;52756;52.826;6.214;2023-11-21T04:15:03;28.75;;;14.10;;
54937;SDS011;52756;52.826;6.214;2023-11-21T04:17:29;31.85;;;14.63;;
54937;SDS011;52756;52.826;6.214;2023-11-21T04:19:54;27.08;;;14.55;;
54937;SDS011;52756;52.826;6.214;2023-11-21T04:22:20;37.03;;;16.17;;
54937;SDS011;52756;52.826;6.214;2023-11-21T04:24:46;30.08;;;14.77;;
54937;SDS011;52756;52.826;6.214;2023-11-21T04:27:11;30.50;;;15.07;;
54937;SDS011;52756;52.826;6.214;2023-11-21T04:29:38;29.15;;;13.90;;
54937;SDS011;52756;52.826;6.214;2023-11-21T04:32:03;29.67;;;14.63;;
54937;SDS011;52756;52.826;6.214;2023-11-21T04:34:30;28.27;;;14.23;;
54937;SDS011;52756;52.826;6.214;2023-11-21T04:36:56;30.90;;;15.02;;
54937;SDS011;52756;52.826;6.214;2023-11-21T04:39:22;37.60;;;16.40;;
54937;SDS011;52756;52.826;6.214;2023-11-21T04:41:48;36.63;;;16.42;;
54937;SDS011;52756;52.826;6.214;2023-11-21T04:44:14;36.90;;;17.15;;
54937;SDS011;52756;52.826;6.214;2023-11-21T04:46:41;39.38;;;17.10;;
54937;SDS011;52756;52.826;6.214;2023-11-21T04:49:06;32.75;;;16.73;;
54937;SDS011;52756;52.826;6.214;2023-11-21T04:51:32;38.40;;;17.55;;
54937;SDS011;52756;52.826;6.214;2023-11-21T04:53:58;46.45;;;17.38;;
54937;SDS011;52756;52.826;6.214;2023-11-21T04:56:24;45.85;;;19.02;;
54937;SDS011;52756;52.826;6.214;2023-11-21T04:58:49;45.08;;;19.77;;
54937;SDS011;52756;52.826;6.214;2023-11-21T05:01:15;49.22;;;19.50;;
54937;SDS011;52756;52.826;6.214;2023-11-21T05:03:41;37.25;;;19.30;;
54937;SDS011;52756;52.826;6.214;2023-11-21T05:06:09;44.63;;;20.60;;
54937;SDS011;52756;52.826;6.214;2023-11-21T05:08:35;41.95;;;18.50;;
54937;SDS011;52756;52.826;6.214;2023-11-21T05:11:02;51.45;;;20.90;;
54937;SDS011;52756;52.826;6.214;2023-11-21T05:13:28;40.35;;;18.65;;
54937;SDS011;52756;52.826;6.214;2023-11-21T05:15:54;40.00;;;19.67;;
54937;SDS011;52756;52.826;6.214;2023-11-21T05:18:22;42.38;;;19.77;;
54937;SDS011;52756;52.826;6.214;2023-11-21T05:20:47;46.70;;;19.77;;
54937;SDS011;52756;52.826;6.214;2023-11-21T05:23:13;47.58;;;20.65;;
54937;SDS011;52756;52.826;6.214;2023-11-21T05:25:39;53.00;;;21.67;;
54937;SDS011;52756;52.826;6.214;2023-11-21T05:28:06;47.13;;;21.98;;
54937;SDS011;52756;52.826;6.214;2023-11-21T05:30:32;39.78;;;19.50;;
54937;SDS011;52756;52.826;6.214;2023-11-21T05:32:57;46.22;;;21.17;;
54937;SDS011;52756;52.826;6.214;2023-11-21T05:35:23;46.70;;;20.73;;
54937;SDS011;52756;52.826;6.214;2023-11-21T05:37:49;44.83;;;19.90;;
54937;SDS011;52756;52.826;6.214;2023-11-21T05:40:14;43.72;;;20.00;;
54937;SDS011;52756;52.826;6.214;2023-11-21T05:42:40;41.90;;;19.80;;
54937;SDS011;52756;52.826;6.214;2023-11-21T05:45:07;42.95;;;20.30;;
54937;SDS011;52756;52.826;6.214;2023-11-21T05:47:45;39.28;;;20.95;;
54937;SDS011;52756;52.826;6.214;2023-11-21T05:50:12;43.55;;;19.60;;
54937;SDS011;52756;52.826;6.214;2023-11-21T05:52:42;41.05;;;19.25;;
54937;SDS011;52756;52.826;6.214;2023-11-21T05:55:10;42.55;;;20.60;;
54937;SDS011;52756;52.826;6.214;2023-11-21T05:57:40;45.00;;;21.55;;
54937;SDS011;52756;52.826;6.214;2023-11-21T06:00:10;46.00;;;20.70;;
54937;SDS011;52756;52.826;6.214;2023-11-21T06:02:50;39.80;;;19.58;;
54937;SDS011;52756;52.826;6.214;2023-11-21T06:05:22;43.30;;;21.50;;
54937;SDS011;52756;52.826;6.214;2023-11-21T06:07:49;43.13;;;20.58;;
54937;SDS011;52756;52.826;6.214;2023-11-21T06:10:15;43.42;;;21.23;;
54937;SDS011;52756;52.826;6.214;2023-11-21T06:12:42;38.42;;;19.25;;
54937;SDS011;52756;52.826;6.214;2023-11-21T06:15:09;44.33;;;20.65;;
54937;SDS011;52756;52.826;6.214;2023-11-21T06:17:38;41.83;;;20.77;;
54937;SDS011;52756;52.826;6.214;2023-11-21T06:20:05;39.13;;;20.38;;
54937;SDS011;52756;52.826;6.214;2023-11-21T06:22:41;37.05;;;19.80;;
54937;SDS011;52756;52.826;6.214;2023-11-21T06:25:08;36.67;;;18.52;;
54937;SDS011;52756;52.826;6.214;2023-11-21T06:27:38;39.42;;;19.33;;
54937;SDS011;52756;52.826;6.214;2023-11-21T06:30:07;40.73;;;18.17;;
54937;SDS011;52756;52.826;6.214;2023-11-21T06:32:35;36.80;;;19.33;;
54937;SDS011;52756;52.826;6.214;2023-11-21T06:35:01;34.45;;;18.92;;
54937;SDS011;52756;52.826;6.214;2023-11-21T06:37:29;31.67;;;18.63;;
54937;SDS011;52756;52.826;6.214;2023-11-21T06:39:55;40.20;;;20.77;;
54937;SDS011;52756;52.826;6.214;2023-11-21T06:42:21;37.13;;;19.33;;
54937;SDS011;52756;52.826;6.214;2023-11-21T06:44:48;36.42;;;18.58;;
54937;SDS011;52756;52.826;6.214;2023-11-21T06:47:16;32.70;;;19.20;;
54937;SDS011;52756;52.826;6.214;2023-11-21T06:49:42;32.47;;;18.30;;
54937;SDS011;52756;52.826;6.214;2023-11-21T06:52:08;32.22;;;18.20;;
54937;SDS011;52756;52.826;6.214;2023-11-21T06:54:34;29.05;;;17.60;;
54937;SDS011;52756;52.826;6.214;2023-11-21T06:57:01;30.20;;;17.38;;
54937;SDS011;52756;52.826;6.214;2023-11-21T06:59:30;28.30;;;15.48;;
54937;SDS011;52756;52.826;6.214;2023-11-21T07:01:56;24.45;;;14.85;;
54937;SDS011;52756;52.826;6.214;2023-11-21T07:04:22;21.05;;;13.68;;
54937;SDS011;52756;52.826;6.214;2023-11-21T07:06:47;21.20;;;12.75;;
54937;SDS011;52756;52.826;6.214;2023-11-21T07:09:13;18.75;;;11.85;;
54937;SDS011;52756;52.826;6.214;2023-11-21T07:11:40;18.75;;;10.95;;
54937;SDS011;52756;52.826;6.214;2023-11-21T07:14:06;20.48;;;11.50;;
54937;SDS011;52756;52.826;6.214;2023-11-21T07:16:36;21.45;;;11.38;;
54937;SDS011;52756;52.826;6.214;2023-11-21T07:19:05;23.92;;;11.55;;
54937;SDS011;52756;52.826;6.214;2023-11-21T07:21:32;24.10;;;12.68;;
54937;SDS011;52756;52.826;6.214;2023-11-21T07:23:59;22.65;;;12.38;;
54937;SDS011;52756;52.826;6.214;2023-11-21T07:26:26;22.75;;;13.00;;
54937;SDS011;52756;52.826;6.214;2023-11-21T07:28:52;20.85;;;11.68;;
54937;SDS011;52756;52.826;6.214;2023-11-21T07:31:18;21.77;;;12.23;;
54937;SDS011;52756;52.826;6.214;2023-11-21T07:33:44;25.13;;;12.75;;
54937;SDS011;52756;52.826;6.214;2023-11-21T07:36:12;27.83;;;13.00;;
54937;SDS011;52756;52.826;6.214;2023-11-21T07:38:38;23.63;;;13.20;;
54937;SDS011;52756;52.826;6.214;2023-11-21T07:41:04;26.10;;;12.40;;
54937;SDS011;52756;52.826;6.214;2023-11-21T07:43:30;22.35;;;12.88;;
54937;SDS011;52756;52.826;6.214;2023-11-21T07:46:00;24.88;;;12.90;;
54937;SDS011;52756;52.826;6.214;2023-11-21T07:48:28;23.55;;;12.63;;
54937;SDS011;52756;52.826;6.214;2023-11-21T07:50:56;20.95;;;11.32;;
54937;SDS011;52756;52.826;6.214;2023-11-21T07:53:26;24.20;;;11.52;;
54937;SDS011;52756;52.826;6.214;2023-11-21T07:55:54;25.75;;;12.65;;
54937;SDS011;52756;52.826;6.214;2023-11-21T07:58:20;24.92;;;11.43;;
54937;SDS011;52756;52.826;6.214;2023-11-21T08:00:45;20.27;;;11.68;;
54937;SDS011;52756;52.826;6.214;2023-11-21T08:03:13;22.58;;;11.05;;
54937;SDS011;52756;52.826;6.214;2023-11-21T08:05:38;19.33;;;10.25;;
54937;SDS011;52756;52.826;6.214;2023-11-21T08:08:04;23.10;;;12.45;;
54937;SDS011;52756;52.826;6.214;2023-11-21T08:10:30;19.05;;;10.35;;
54937;SDS011;52756;52.826;6.214;2023-11-21T08:12:55;19.92;;;10.48;;
54937;SDS011;52756;52.826;6.214;2023-11-21T08:15:21;18.13;;;10.63;;
54937;SDS011;52756;52.826;6.214;2023-11-21T08:17:47;17.88;;;10.57;;
54937;SDS011;52756;52.826;6.214;2023-11-21T08:20:13;21.15;;;10.48;;
54937;SDS011;52756;52.826;6.214;2023-11-21T08:22:41;18.27;;;10.18;;
54937;SDS011;52756;52.826;6.214;2023-11-21T08:25:10;23.00;;;11.88;;
54937;SDS011;52756;52.826;6.214;2023-11-21T08:27:35;20.15;;;10.75;;
54937;SDS011;52756;52.826;6.214;2023-11-21T08:30:05;16.83;;;10.98;;
54937;SDS011;52756;52.826;6.214;2023-11-21T08:32:32;18.55;;;11.18;;
54937;SDS011;52756;52.826;6.214;2023-11-21T08:34:58;17.67;;;10.90;;
54937;SDS011;52756;52.826;6.214;2023-11-21T08:37:27;17.08;;;11.50;;
54937;SDS011;52756;52.826;6.214;2023-11-21T08:39:55;19.08;;;10.93;;
54937;SDS011;52756;52.826;6.214;2023-11-21T08:42:23;18.30;;;10.63;;
54937;SDS011;52756;52.826;6.214;2023-11-21T08:44:49;17.20;;;10.55;;
54937;SDS011;52756;52.826;6.214;2023-11-21T08:47:14;18.20;;;10.93;;
54937;SDS011;52756;52.826;6.214;2023-11-21T08:49:40;19.08;;;11.50;;
54937;SDS011;52756;52.826;6.214;2023-11-21T08:52:05;19.10;;;11.82;;
54937;SDS011;52756;52.826;6.214;2023-11-21T08:54:31;16.02;;;10.10;;
54937;SDS011;52756;52.826;6.214;2023-11-21T08:56:57;17.60;;;9.93;;
54937;SDS011;52756;52.826;6.214;2023-11-21T08:59:25;18.05;;;10.50;;
54937;SDS011;52756;52.826;6.214;2023-11-21T09:01:51;19.83;;;11.63;;
54937;SDS011;52756;52.826;6.214;2023-11-21T09:04:17;21.85;;;12.00;;
54937;SDS011;52756;52.826;6.214;2023-11-21T09:06:42;19.08;;;11.07;;
54937;SDS011;52756;52.826;6.214;2023-11-21T09:09:08;22.45;;;12.73;;
54937;SDS011;52756;52.826;6.214;2023-11-21T09:11:35;22.23;;;13.35;;
54937;SDS011;52756;52.826;6.214;2023-11-21T09:14:01;27.60;;;13.93;;
54937;SDS011;52756;52.826;6.214;2023-11-21T09:16:30;22.65;;;13.18;;
54937;SDS011;52756;52.826;6.214;2023-11-21T09:18:56;24.00;;;13.35;;
54937;SDS011;52756;52.826;6.214;2023-11-21T09:21:22;23.73;;;13.73;;
54937;SDS011;52756;52.826;6.214;2023-11-21T09:23:49;23.10;;;12.90;;
54937;SDS011;52756;52.826;6.214;2023-11-21T09:26:14;22.90;;;13.10;;
54937;SDS011;52756;52.826;6.214;2023-11-21T09:28:41;23.25;;;12.65;;
54937;SDS011;52756;52.826;6.214;2023-11-21T09:31:11;21.98;;;12.05;;
54937;SDS011;52756;52.826;6.214;2023-11-21T09:33:37;21.52;;;12.93;;
54937;SDS011;52756;52.826;6.214;2023-11-21T09:36:03;21.05;;;12.32;;
54937;SDS011;52756;52.826;6.214;2023-11-21T09:38:30;19.05;;;10.57;;
54937;SDS011;52756;52.826;6.214;2023-11-21T09:40:56;18.08;;;10.82;;
54937;SDS011;52756;52.826;6.214;2023-11-21T09:43:23;17.20;;;10.88;;
54937;SDS011;52756;52.826;6.214;2023-11-21T09:45:56;16.80;;;10.18;;
54937;SDS011;52756;52.826;6.214;2023-11-21T09:48:25;18.20;;;11.00;;
54937;SDS011;52756;52.826;6.214;2023-11-21T09:50:51;14.15;;;8.77;;
54937;SDS011;52756;52.826;6.214;2023-11-21T09:53:21;15.23;;;9.68;;
54937;SDS011;52756;52.826;6.214;2023-11-21T09:55:50;23.63;;;14.43;;
54937;SDS011;52756;52.826;6.214;2023-11-21T09:58:17;24.65;;;16.20;;
54937;SDS011;52756;52.826;6.214;2023-11-21T10:00:45;25.23;;;16.00;;
54937;SDS011;52756;52.826;6.214;2023-11-21T10:03:12;26.40;;;15.95;;
54937;SDS011;52756;52.826;6.214;2023-11-21T10:05:39;25.05;;;15.90;;
54937;SDS011;52756;52.826;6.214;2023-11-21T10:08:10;25.70;;;16.48;;
54937;SDS011;52756;52.826;6.214;2023-11-21T10:10:44;25.05;;;16.75;;
54937;SDS011;52756;52.826;6.214;2023-11-21T10:13:11;23.65;;;15.88;;
54937;SDS011;52756;52.826;6.214;2023-11-21T10:15:38;24.55;;;15.63;;
54937;SDS011;52756;52.826;6.214;2023-11-21T10:18:03;22.40;;;14.95;;
54937;SDS011;52756;52.826;6.214;2023-11-21T10:20:31;24.85;;;16.55;;
54937;SDS011;52756;52.826;6.214;2023-11-21T10:22:59;25.92;;;15.40;;
54937;SDS011;52756;52.826;6.214;2023-11-21T10:25:27;24.77;;;16.00;;
54937;SDS011;52756;52.826;6.214;2023-11-21T10:27:56;26.00;;;17.95;;
54937;SDS011;52756;52.826;6.214;2023-11-21T10:30:35;21.70;;;15.63;;
54937;SDS011;52756;52.826;6.214;2023-11-21T10:33:02;23.02;;;16.13;;
54937;SDS011;52756;52.826;6.214;2023-11-21T10:35:39;19.95;;;14.70;;
54937;SDS011;52756;52.826;6.214;2023-11-21T10:38:05;21.58;;;14.95;;
54937;SDS011;52756;52.826;6.214;2023-11-21T10:40:30;20.50;;;15.48;;
54937;SDS011;52756;52.826;6.214;2023-11-21T10:43:05;23.83;;;16.63;;
54937;SDS011;52756;52.826;6.214;2023-11-21T10:45:33;24.30;;;17.92;;
54937;SDS011;52756;52.826;6.214;2023-11-21T10:47:59;24.08;;;18.02;;
54937;SDS011;52756;52.826;6.214;2023-11-21T10:50:26;25.30;;;18.98;;
54937;SDS011;52756;52.826;6.214;2023-11-21T10:52:51;25.23;;;18.35;;
54937;SDS011;52756;52.826;6.214;2023-11-21T10:55:20;27.15;;;18.88;;
54937;SDS011;52756;52.826;6.214;2023-11-21T10:57:48;27.10;;;20.08;;
54937;SDS011;52756;52.826;6.214;2023-11-21T11:00:16;28.95;;;19.60;;
54937;SDS011;52756;52.826;6.214;2023-11-21T11:02:45;32.03;;;20.20;;
54937;SDS011;52756;52.826;6.214;2023-11-21T11:05:15;25.27;;;18.55;;
54937;SDS011;52756;52.826;6.214;2023-11-21T11:07:45;25.33;;;17.85;;
54937;SDS011;52756;52.826;6.214;2023-11-21T11:10:13;20.55;;;15.98;;
54937;SDS011;52756;52.826;6.214;2023-11-21T11:12:39;22.42;;;17.35;;
54937;SDS011;52756;52.826;6.214;2023-11-21T11:15:07;21.45;;;16.38;;
54937;SDS011;52756;52.826;6.214;2023-11-21T11:17:35;20.35;;;15.98;;
54937;SDS011;52756;52.826;6.214;2023-11-21T11:20:04;22.15;;;16.42;;
54937;SDS011;52756;52.826;6.214;2023-11-21T11:22:41;20.73;;;16.77;;
54937;SDS011;52756;52.826;6.214;2023-11-21T11:28:10;20.05;;;15.95;;
54937;SDS011;52756;52.826;6.214;2023-11-21T11:30:41;20.70;;;16.13;;
54937;SDS011;52756;52.826;6.214;2023-11-21T11:33:34;21.75;;;16.50;;
54937;SDS011;52756;52.826;6.214;2023-11-21T11:41:11;23.13;;;16.15;;
54937;SDS011;52756;52.826;6.214;2023-11-21T11:43:37;21.13;;;16.38;;
54937;SDS011;52756;52.826;6.214;2023-11-21T11:46:09;20.63;;;16.00;;
54937;SDS011;52756;52.826;6.214;2023-11-21T11:48:38;21.77;;;15.63;;
54937;SDS011;52756;52.826;6.214;2023-11-21T11:53:40;18.05;;;14.63;;
54937;SDS011;52756;52.826;6.214;2023-11-21T11:56:19;16.25;;;13.50;;
54937;SDS011;52756;52.826;6.214;2023-11-21T11:58:46;16.48;;;12.00;;
54937;SDS011;52756;52.826;6.214;2023-11-21T12:01:13;13.05;;;10.57;;
54937;SDS011;52756;52.826;6.214;2023-11-21T12:03:38;12.75;;;10.73;;
54937;SDS011;52756;52.826;6.214;2023-11-21T12:06:04;12.35;;;9.98;;
54937;SDS011;52756;52.826;6.214;2023-11-21T12:08:32;11.98;;;9.18;;
54937;SDS011;52756;52.826;6.214;2023-11-21T12:10:58;10.85;;;8.40;;
54937;SDS011;52756;52.826;6.214;2023-11-21T12:13:23;11.25;;;8.60;;
54937;SDS011;52756;52.826;6.214;2023-11-21T12:15:49;12.43;;;8.60;;
54937;SDS011;52756;52.826;6.214;2023-11-21T12:18:15;11.40;;;8.52;;
54937;SDS011;52756;52.826;6.214;2023-11-21T12:20:41;9.35;;;7.60;;
54937;SDS011;52756;52.826;6.214;2023-11-21T12:23:08;10.07;;;7.60;;
54937;SDS011;52756;52.826;6.214;2023-11-21T12:25:36;9.75;;;7.57;;
54937;SDS011;52756;52.826;6.214;2023-11-21T12:28:04;11.57;;;8.18;;
54937;SDS011;52756;52.826;6.214;2023-11-21T12:30:32;10.70;;;8.07;;
54937;SDS011;52756;52.826;6.214;2023-11-21T12:33:01;10.20;;;7.68;;
54937;SDS011;52756;52.826;6.214;2023-11-21T12:35:31;10.10;;;8.23;;
54937;SDS011;52756;52.826;6.214;2023-11-21T12:38:01;9.38;;;7.88;;
54937;SDS011;52756;52.826;6.214;2023-11-21T12:40:29;10.88;;;7.75;;
54937;SDS011;52756;52.826;6.214;2023-11-21T12:42:56;10.40;;;7.97;;
54937;SDS011;52756;52.826;6.214;2023-11-21T12:45:24;12.50;;;8.82;;
54937;SDS011;52756;52.826;6.214;2023-11-21T12:50:22;9.82;;;7.90;;
54937;SDS011;52756;52.826;6.214;2023-11-21T12:52:51;9.45;;;7.65;;
54937;SDS011;52756;52.826;6.214;2023-11-21T12:55:21;10.38;;;7.22;;
54937;SDS011;52756;52.826;6.214;2023-11-21T12:57:51;10.65;;;7.40;;
54937;SDS011;52756;52.826;6.214;2023-11-21T13:00:33;10.20;;;7.57;;
54937;SDS011;52756;52.826;6.214;2023-11-21T13:03:02;10.40;;;6.82;;
54937;SDS011;52756;52.826;6.214;2023-11-21T13:05:30;7.78;;;5.78;;
54937;SDS011;52756;52.826;6.214;2023-11-21T13:07:59;8.75;;;6.32;;
54937;SDS011;52756;52.826;6.214;2023-11-21T13:10:28;8.98;;;6.50;;
54937;SDS011;52756;52.826;6.214;2023-11-21T13:12:58;8.63;;;7.05;;
54937;SDS011;52756;52.826;6.214;2023-11-21T13:15:24;9.02;;;6.28;;
54937;SDS011;52756;52.826;6.214;2023-11-21T13:17:51;8.65;;;6.40;;
54937;SDS011;52756;52.826;6.214;2023-11-21T13:20:18;9.40;;;6.90;;
54937;SDS011;52756;52.826;6.214;2023-11-21T13:25:15;7.50;;;5.85;;
54937;SDS011;52756;52.826;6.214;2023-11-21T13:27:43;10.93;;;6.13;;
54937;SDS011;52756;52.826;6.214;2023-11-21T13:30:10;7.22;;;5.57;;
54937;SDS011;52756;52.826;6.214;2023-11-21T13:32:41;7.70;;;6.25;;
54937;SDS011;52756;52.826;6.214;2023-11-21T13:35:11;8.20;;;5.63;;
54937;SDS011;52756;52.826;6.214;2023-11-21T13:37:51;8.95;;;6.40;;
54937;SDS011;52756;52.826;6.214;2023-11-21T13:40:20;7.35;;;5.60;;
54937;SDS011;52756;52.826;6.214;2023-11-21T13:42:53;8.43;;;6.28;;
54937;SDS011;52756;52.826;6.214;2023-11-21T13:45:20;7.72;;;5.72;;
54937;SDS011;52756;52.826;6.214;2023-11-21T13:47:48;10.75;;;5.80;;
54937;SDS011;52756;52.826;6.214;2023-11-21T13:50:16;9.77;;;5.80;;
54937;SDS011;52756;52.826;6.214;2023-11-21T13:52:47;8.35;;;5.70;;
54937;SDS011;52756;52.826;6.214;2023-11-21T13:55:14;9.07;;;6.25;;
54937;SDS011;52756;52.826;6.214;2023-11-21T13:57:41;12.10;;;6.65;;
54937;SDS011;52756;52.826;6.214;2023-11-21T14:00:14;8.95;;;6.32;;
54937;SDS011;52756;52.826;6.214;2023-11-21T14:03:15;7.93;;;6.80;;
54937;SDS011;52756;52.826;6.214;2023-11-21T14:05:45;8.65;;;6.10;;
54937;SDS011;52756;52.826;6.214;2023-11-21T14:08:20;8.02;;;6.10;;
54937;SDS011;52756;52.826;6.214;2023-11-21T14:10:49;9.65;;;6.53;;
54937;SDS011;52756;52.826;6.214;2023-11-21T14:13:18;8.80;;;6.40;;
54937;SDS011;52756;52.826;6.214;2023-11-21T14:15:44;9.88;;;6.03;;
54937;SDS011;52756;52.826;6.214;2023-11-21T14:18:12;9.55;;;6.22;;
54937;SDS011;52756;52.826;6.214;2023-11-21T14:20:42;8.60;;;6.53;;
54937;SDS011;52756;52.826;6.214;2023-11-21T14:23:09;9.82;;;7.15;;
54937;SDS011;52756;52.826;6.214;2023-11-21T14:25:35;9.38;;;6.95;;
54937;SDS011;52756;52.826;6.214;2023-11-21T14:28:02;7.93;;;6.38;;
54937;SDS011;52756;52.826;6.214;2023-11-21T14:30:31;7.78;;;6.30;;
54937;SDS011;52756;52.826;6.214;2023-11-21T14:32:58;8.25;;;6.82;;
54937;SDS011;52756;52.826;6.214;2023-11-21T14:35:26;10.15;;;6.70;;
54937;SDS011;52756;52.826;6.214;2023-11-21T14:37:52;8.30;;;6.82;;
54937;SDS011;52756;52.826;6.214;2023-11-21T14:40:18;8.15;;;7.18;;
54937;SDS011;52756;52.826;6.214;2023-11-21T14:42:49;8.38;;;6.28;;